sensor_id;sensor_type;location;lat;lon;timestamp;pressure;altitude;pressure_sealevel;temperature;humidity
63946;BME280;50122;56.330;43.838;2023-04-01T00:01:27;99717.63;;;3.01;79.42
63946;BME280;50122;56.330;43.838;2023-04-01T00:03:54;99718.53;;;3.00;79.42
63946;BME280;50122;56.330;43.838;2023-04-01T00:06:23;99719.41;;;2.99;79.52
63946;BME280;50122;56.330;43.838;2023-04-01T00:08:49;99717.63;;;3.01;80.23
63946;BME280;50122;56.330;43.838;2023-04-01T00:11:17;99708.94;;;3.00;79.69
63946;BME280;50122;56.330;43.838;2023-04-01T00:13:46;99711.50;;;3.02;79.86
63946;BME280;50122;56.330;43.838;2023-04-01T00:16:13;99712.47;;;2.98;79.96
63946;BME280;50122;56.330;43.838;2023-04-01T00:18:48;99708.00;;;3.03;80.05
63946;BME280;50122;56.330;43.838;2023-04-01T00:21:15;99708.03;;;3.01;80.36
63946;BME280;50122;56.330;43.838;2023-04-01T00:23:44;99691.53;;;3.01;79.73
63946;BME280;50122;56.330;43.838;2023-04-01T00:26:11;99695.78;;;3.03;79.99
63946;BME280;50122;56.330;43.838;2023-04-01T00:28:39;99704.50;;;3.04;80.11
63946;BME280;50122;56.330;43.838;2023-04-01T00:31:07;99695.84;;;3.02;80.06
63946;BME280;50122;56.330;43.838;2023-04-01T00:33:35;99692.34;;;3.03;80.39
63946;BME280;50122;56.330;43.838;2023-04-01T00:36:21;99701.06;;;3.02;80.84
63946;BME280;50122;56.330;43.838;2023-04-01T00:38:49;99687.19;;;3.00;80.52
63946;BME280;50122;56.330;43.838;2023-04-01T00:41:18;99678.59;;;2.94;80.46
63946;BME280;50122;56.330;43.838;2023-04-01T00:43:47;99685.50;;;2.97;81.10
63946;BME280;50122;56.330;43.838;2023-04-01T00:46:14;99701.97;;;3.01;80.88
63946;BME280;50122;56.330;43.838;2023-04-01T00:48:52;99686.22;;;3.04;81.13
63946;BME280;50122;56.330;43.838;2023-04-01T00:51:24;99680.97;;;3.05;81.21
63946;BME280;50122;56.330;43.838;2023-04-01T00:53:53;99691.31;;;3.10;81.83
63946;BME280;50122;56.330;43.838;2023-04-01T00:56:30;99687.88;;;3.08;81.09
63946;BME280;50122;56.330;43.838;2023-04-01T00:59:04;99681.72;;;3.10;81.84
63946;BME280;50122;56.330;43.838;2023-04-01T01:01:35;99690.31;;;3.16;81.60
63946;BME280;50122;56.330;43.838;2023-04-01T01:04:03;99683.25;;;3.19;81.73
63946;BME280;50122;56.330;43.838;2023-04-01T01:12:15;99683.31;;;3.16;81.19
63946;BME280;50122;56.330;43.838;2023-04-01T01:17:56;99672.97;;;3.13;81.42
63946;BME280;50122;56.330;43.838;2023-04-01T01:26:19;99675.56;;;3.13;82.00
63946;BME280;50122;56.330;43.838;2023-04-01T01:29:06;99679.88;;;3.16;82.18
63946;BME280;50122;56.330;43.838;2023-04-01T01:31:48;99675.44;;;3.18;82.18
63946;BME280;50122;56.330;43.838;2023-04-01T01:37:08;99674.59;;;3.17;82.42
63946;BME280;50122;56.330;43.838;2023-04-01T01:39:37;99678.88;;;3.21;82.24
63946;BME280;50122;56.330;43.838;2023-04-01T01:42:08;99678.81;;;3.23;82.54
63946;BME280;50122;56.330;43.838;2023-04-01T01:44:37;99665.00;;;3.18;82.24
63946;BME280;50122;56.330;43.838;2023-04-01T01:47:05;99675.25;;;3.27;82.31
63946;BME280;50122;56.330;43.838;2023-04-01T01:49:33;99676.91;;;3.31;82.18
63946;BME280;50122;56.330;43.838;2023-04-01T01:52:00;99671.59;;;3.34;82.05
63946;BME280;50122;56.330;43.838;2023-04-01T01:54:27;99667.38;;;3.28;82.57
63946;BME280;50122;56.330;43.838;2023-04-01T01:57:08;99668.31;;;3.26;82.37
63946;BME280;50122;56.330;43.838;2023-04-01T01:59:37;99672.66;;;3.27;82.83
63946;BME280;50122;56.330;43.838;2023-04-01T02:02:07;99674.34;;;3.29;82.56
63946;BME280;50122;56.330;43.838;2023-04-01T02:04:37;99673.41;;;3.30;82.67
63946;BME280;50122;56.330;43.838;2023-04-01T02:07:15;99666.59;;;3.25;82.29
63946;BME280;50122;56.330;43.838;2023-04-01T02:09:43;99671.72;;;3.29;82.54
63946;BME280;50122;56.330;43.838;2023-04-01T02:12:12;99667.31;;;3.32;82.44
63946;BME280;50122;56.330;43.838;2023-04-01T02:14:52;99663.84;;;3.31;82.13
63946;BME280;50122;56.330;43.838;2023-04-01T02:17:23;99666.41;;;3.33;82.40
63946;BME280;50122;56.330;43.838;2023-04-01T02:19:56;99665.50;;;3.34;82.19
63946;BME280;50122;56.330;43.838;2023-04-01T02:22:28;99662.13;;;3.30;82.24
63946;BME280;50122;56.330;43.838;2023-04-01T02:25:00;99662.16;;;3.28;82.63
63946;BME280;50122;56.330;43.838;2023-04-01T02:27:30;99662.16;;;3.28;82.34
63946;BME280;50122;56.330;43.838;2023-04-01T02:29:57;99664.84;;;3.25;82.38
63946;BME280;50122;56.330;43.838;2023-04-01T02:32:25;99658.72;;;3.26;82.50
63946;BME280;50122;56.330;43.838;2023-04-01T02:34:53;99665.56;;;3.30;82.99
63946;BME280;50122;56.330;43.838;2023-04-01T02:37:20;99665.66;;;3.27;82.62
63946;BME280;50122;56.330;43.838;2023-04-01T02:39:47;99670.88;;;3.27;82.85
63946;BME280;50122;56.330;43.838;2023-04-01T02:42:14;99665.53;;;3.32;82.90
63946;BME280;50122;56.330;43.838;2023-04-01T02:44:41;99677.75;;;3.32;82.76
63946;BME280;50122;56.330;43.838;2023-04-01T02:47:08;99676.81;;;3.34;82.47
63946;BME280;50122;56.330;43.838;2023-04-01T02:49:34;99668.09;;;3.35;82.59
63946;BME280;50122;56.330;43.838;2023-04-01T02:52:01;99670.69;;;3.37;82.52
63946;BME280;50122;56.330;43.838;2023-04-01T02:54:30;99666.34;;;3.36;82.51
63946;BME280;50122;56.330;43.838;2023-04-01T02:56:58;99671.69;;;3.31;82.00
63946;BME280;50122;56.330;43.838;2023-04-01T02:59:24;99671.72;;;3.29;82.26
63946;BME280;50122;56.330;43.838;2023-04-01T03:01:51;99667.31;;;3.32;82.70
63946;BME280;50122;56.330;43.838;2023-04-01T03:04:18;99672.38;;;3.38;82.24
63946;BME280;50122;56.330;43.838;2023-04-01T03:06:44;99674.94;;;3.39;82.63
63946;BME280;50122;56.330;43.838;2023-04-01T03:09:11;99674.84;;;3.44;82.44
63946;BME280;50122;56.330;43.838;2023-04-01T03:11:38;99666.09;;;3.45;82.72
63946;BME280;50122;56.330;43.838;2023-04-01T03:14:04;99671.25;;;3.48;81.99
63946;BME280;50122;56.330;43.838;2023-04-01T03:16:31;99668.63;;;3.50;82.58
63946;BME280;50122;56.330;43.838;2023-04-01T03:18:58;99664.22;;;3.52;82.71
63946;BME280;50122;56.330;43.838;2023-04-01T03:21:26;99672.00;;;3.53;82.72
63946;BME280;50122;56.330;43.838;2023-04-01T03:23:52;99674.66;;;3.52;82.09
63946;BME280;50122;56.330;43.838;2023-04-01T03:26:20;99662.41;;;3.54;82.51
63946;BME280;50122;56.330;43.838;2023-04-01T03:28:48;99667.56;;;3.57;82.60
63946;BME280;50122;56.330;43.838;2023-04-01T03:31:14;99664.13;;;3.55;81.95
63946;BME280;50122;56.330;43.838;2023-04-01T03:33:42;99669.44;;;3.52;82.20
63946;BME280;50122;56.330;43.838;2023-04-01T03:36:09;99663.38;;;3.51;82.56
63946;BME280;50122;56.330;43.838;2023-04-01T03:38:39;99672.00;;;3.53;82.40
63946;BME280;50122;56.330;43.838;2023-04-01T03:41:06;99664.38;;;3.45;81.88
63946;BME280;50122;56.330;43.838;2023-04-01T03:43:33;99676.34;;;3.54;82.31
63946;BME280;50122;56.330;43.838;2023-04-01T03:45:59;99658.22;;;3.46;82.00
63946;BME280;50122;56.330;43.838;2023-04-01T03:48:26;99668.53;;;3.53;81.54
63946;BME280;50122;56.330;43.838;2023-04-01T03:50:53;99673.78;;;3.53;81.74
63946;BME280;50122;56.330;43.838;2023-04-01T03:53:20;99671.16;;;3.53;81.25
63946;BME280;50122;56.330;43.838;2023-04-01T03:55:47;99674.63;;;3.53;81.70
63946;BME280;50122;56.330;43.838;2023-04-01T03:58:14;99671.13;;;3.54;81.58
63946;BME280;50122;56.330;43.838;2023-04-01T04:00:40;99671.03;;;3.57;81.74
63946;BME280;50122;56.330;43.838;2023-04-01T04:03:09;99680.53;;;3.61;81.69
63946;BME280;50122;56.330;43.838;2023-04-01T04:05:36;99677.91;;;3.61;80.80
63946;BME280;50122;56.330;43.838;2023-04-01T04:08:03;99669.28;;;3.58;81.22
63946;BME280;50122;56.330;43.838;2023-04-01T04:10:30;99673.50;;;3.63;81.14
63946;BME280;50122;56.330;43.838;2023-04-01T04:12:57;99679.56;;;3.65;80.92
63946;BME280;50122;56.330;43.838;2023-04-01T04:15:23;99677.66;;;3.71;81.09
63946;BME280;50122;56.330;43.838;2023-04-01T04:17:52;99671.59;;;3.70;80.91
63946;BME280;50122;56.330;43.838;2023-04-01T04:20:19;99675.91;;;3.71;81.09
63946;BME280;50122;56.330;43.838;2023-04-01T04:22:46;99676.69;;;3.75;81.06
63946;BME280;50122;56.330;43.838;2023-04-01T04:25:14;99679.22;;;3.78;80.83
63946;BME280;50122;56.330;43.838;2023-04-01T04:27:41;99679.97;;;3.83;80.28
63946;BME280;50122;56.330;43.838;2023-04-01T04:30:08;99682.50;;;3.86;80.52
63946;BME280;50122;56.330;43.838;2023-04-01T04:32:35;99692.75;;;3.94;80.57
63946;BME280;50122;56.330;43.838;2023-04-01T04:35:02;99692.53;;;4.03;80.36
63946;BME280;50122;56.330;43.838;2023-04-01T04:37:29;99680.25;;;4.05;79.52
63946;BME280;50122;56.330;43.838;2023-04-01T04:39:56;99679.41;;;4.05;79.52
63946;BME280;50122;56.330;43.838;2023-04-01T04:42:22;99681.06;;;4.07;79.12
63946;BME280;50122;56.330;43.838;2023-04-01T04:44:49;99675.72;;;4.12;79.40
63946;BME280;50122;56.330;43.838;2023-04-01T04:47:16;99673.16;;;4.10;79.43
63946;BME280;50122;56.330;43.838;2023-04-01T04:49:43;99674.53;;;4.24;79.91
63946;BME280;50122;56.330;43.838;2023-04-01T04:52:09;99683.88;;;4.32;79.96
63946;BME280;50122;56.330;43.838;2023-04-01T04:54:36;99677.84;;;4.29;80.05
63946;BME280;50122;56.330;43.838;2023-04-01T04:57:03;99680.59;;;4.24;80.14
63946;BME280;50122;56.330;43.838;2023-04-01T04:59:30;99680.91;;;4.13;79.96
63946;BME280;50122;56.330;43.838;2023-04-01T05:01:57;99681.06;;;4.09;80.66
63946;BME280;50122;56.330;43.838;2023-04-01T05:04:24;99684.56;;;4.08;80.96
63946;BME280;50122;56.330;43.838;2023-04-01T05:06:50;99684.56;;;4.08;81.42
63946;BME280;50122;56.330;43.838;2023-04-01T05:09:18;99681.75;;;4.14;81.33
63946;BME280;50122;56.330;43.838;2023-04-01T05:11:44;99689.44;;;4.20;81.11
63946;BME280;50122;56.330;43.838;2023-04-01T05:14:13;99685.97;;;4.20;81.01
63946;BME280;50122;56.330;43.838;2023-04-01T05:16:41;99688.50;;;4.23;81.30
63946;BME280;50122;56.330;43.838;2023-04-01T05:19:08;99688.22;;;4.33;81.05
63946;BME280;50122;56.330;43.838;2023-04-01T05:21:35;99692.34;;;4.42;81.39
63946;BME280;50122;56.330;43.838;2023-04-01T05:24:01;99680.84;;;4.48;81.07
63946;BME280;50122;56.330;43.838;2023-04-01T05:26:28;99670.19;;;4.54;81.31
63946;BME280;50122;56.330;43.838;2023-04-01T05:28:54;99683.69;;;4.70;80.44
63946;BME280;50122;56.330;43.838;2023-04-01T05:31:21;99681.78;;;4.75;80.42
63946;BME280;50122;56.330;43.838;2023-04-01T05:33:50;99674.66;;;4.80;79.90
63946;BME280;50122;56.330;43.838;2023-04-01T05:36:17;99682.25;;;4.88;79.38
63946;BME280;50122;56.330;43.838;2023-04-01T05:38:45;99686.56;;;4.91;79.38
63946;BME280;50122;56.330;43.838;2023-04-01T05:41:13;99677.56;;;4.99;78.51
63946;BME280;50122;56.330;43.838;2023-04-01T05:43:41;99678.56;;;4.95;78.43
63946;BME280;50122;56.330;43.838;2023-04-01T05:46:09;99677.19;;;5.12;78.83
63946;BME280;50122;56.330;43.838;2023-04-01T05:48:36;99686.44;;;5.24;78.38
63946;BME280;50122;56.330;43.838;2023-04-01T05:51:03;99680.81;;;5.34;77.82
63946;BME280;50122;56.330;43.838;2023-04-01T05:53:32;99688.25;;;5.48;77.58
63946;BME280;50122;56.330;43.838;2023-04-01T05:56:02;99681.41;;;5.44;75.81
63946;BME280;50122;56.330;43.838;2023-04-01T05:58:30;99670.22;;;5.39;76.56
63946;BME280;50122;56.330;43.838;2023-04-01T06:01:02;99685.34;;;5.57;76.25
